Time;durP1;ratioP1;P1;durP2;ratioP2;P2;SDS_P1;SDS_P2;PMS_P1;PMS_P2;Temp;Humidity;BMP_temperature;BMP_pressure;BME280_temperature;BME280_humidity;BME280_pressure;Samples;Min_cycle;Max_cycle;Signal;HPM_P1;HPM_P2
2022/03/20 00:00:37;;;;;;;4.95;3.17;;;5.20;99.90;;;;;;4881457;29;20048;-89
2022/03/20 00:03:08;;;;;;;6.60;3.40;;;4.90;99.90;;;;;;4828860;29;20081;-91
2022/03/20 00:05:38;;;;;;;4.20;2.55;;;4.90;99.90;;;;;;4861427;29;20128;-86
2022/03/20 00:08:11;;;;;;;3.80;3.00;;;4.90;99.90;;;;;;4845917;29;20095;-90
2022/03/20 00:10:38;;;;;;;7.28;2.60;;;4.90;99.90;;;;;;4874989;29;20065;-86
2022/03/20 00:13:08;;;;;;;;;;;4.90;99.90;;;;;;4855281;29;20420;-91
2022/03/20 00:15:34;;;;;;;3.33;2.70;;;4.80;99.90;;;;;;4871382;29;19924;-91
2022/03/20 00:18:00;;;;;;;4.00;2.72;;;4.80;99.90;;;;;;4877035;29;20057;-91
2022/03/20 00:20:25;;;;;;;3.50;2.57;;;4.80;99.90;;;;;;4864408;29;20050;-91
2022/03/20 00:22:52;;;;;;;3.77;3.03;;;4.90;99.90;;;;;;4863007;29;20049;-89
2022/03/20 00:25:18;;;;;;;4.43;2.67;;;4.70;99.90;;;;;;4848617;29;20405;-90
2022/03/20 00:27:44;;;;;;;4.00;2.97;;;4.70;99.90;;;;;;4849814;29;20432;-90
2022/03/20 00:30:10;;;;;;;3.03;2.50;;;4.70;99.90;;;;;;4875179;29;20128;-90
2022/03/20 00:32:36;;;;;;;4.25;2.70;;;4.70;99.90;;;;;;4873150;29;20177;-90
2022/03/20 00:35:02;;;;;;;5.78;2.67;;;4.60;99.90;;;;;;4879924;29;20132;-90
2022/03/20 00:37:28;;;;;;;4.20;2.30;;;4.60;99.90;;;;;;4872266;29;20045;-90
2022/03/20 00:39:54;;;;;;;4.30;2.95;;;4.50;99.90;;;;;;4856018;29;20128;-91
2022/03/20 00:42:20;;;;;;;7.07;3.07;;;4.50;99.90;;;;;;4882824;29;20086;-91
2022/03/20 00:44:46;;;;;;;7.35;3.25;;;4.50;99.90;;;;;;4855516;29;20052;-89
2022/03/20 00:47:13;;;;;;;4.00;3.05;;;4.50;99.90;;;;;;4879681;29;20052;-91
2022/03/20 00:49:41;;;;;;;4.72;2.42;;;4.70;99.90;;;;;;4870675;29;20049;-87
2022/03/20 00:52:07;;;;;;;5.65;3.55;;;4.40;99.90;;;;;;4850789;29;20144;-90
2022/03/20 00:54:33;;;;;;;4.07;3.50;;;4.30;99.90;;;;;;4825036;29;20164;-90
2022/03/20 00:56:59;;;;;;;8.77;3.28;;;4.30;99.90;;;;;;4820643;29;20037;-90
2022/03/20 00:59:26;;;;;;;3.40;2.65;;;4.20;99.90;;;;;;4871107;29;20056;-91
2022/03/20 01:01:52;;;;;;;6.05;3.47;;;4.20;99.90;;;;;;4854267;29;20109;-91
2022/03/20 01:04:18;;;;;;;2.93;2.60;;;4.10;99.90;;;;;;4873023;29;20045;-90
2022/03/20 01:06:44;;;;;;;3.23;2.67;;;4.00;99.90;;;;;;4854454;29;20104;-88
2022/03/20 01:09:09;;;;;;;3.33;3.03;;;5.10;99.90;;;;;;4874359;29;20457;-90
2022/03/20 01:11:35;;;;;;;6.20;3.88;;;4.00;99.90;;;;;;4875499;29;20074;-91
2022/03/20 01:14:01;;;;;;;2.75;2.40;;;4.60;99.90;;;;;;4880623;29;20050;-91
2022/03/20 01:16:26;;;;;;;2.70;2.20;;;5.40;99.90;;;;;;4863638;29;20049;-90
2022/03/20 01:18:52;;;;;;;4.27;3.10;;;3.90;99.90;;;;;;4831494;29;20087;-90
2022/03/20 01:21:18;;;;;;;4.78;2.80;;;5.10;99.90;;;;;;4875691;29;20058;-90
2022/03/20 01:23:44;;;;;;;6.53;3.80;;;3.90;99.90;;;;;;4872785;29;20489;-86
2022/03/20 01:26:11;;;;;;;4.73;2.70;;;3.90;99.90;;;;;;4868542;29;20099;-89
2022/03/20 01:28:37;;;;;;;4.13;2.83;;;4.80;99.90;;;;;;4875837;29;20059;-91
2022/03/20 01:31:03;;;;;;;3.95;3.22;;;4.80;99.90;;;;;;4877334;29;20398;-90
2022/03/20 01:33:28;;;;;;;6.07;3.30;;;3.80;99.90;;;;;;4871174;29;20088;-90
2022/03/20 01:35:54;;;;;;;4.72;3.33;;;3.80;99.90;;;;;;4879407;29;20053;-90
2022/03/20 01:38:20;;;;;;;4.93;3.10;;;3.80;99.90;;;;;;4868423;29;20154;-90
2022/03/20 01:40:47;;;;;;;2.60;2.40;;;4.70;99.90;;;;;;4876324;29;20049;-89
2022/03/20 01:43:13;;;;;;;;;;;3.90;99.90;;;;;;4878514;29;20088;-91
2022/03/20 01:45:39;;;;;;;4.38;3.30;;;3.80;99.90;;;;;;4850043;29;19930;-90
2022/03/20 01:48:05;;;;;;;5.07;3.45;;;3.70;99.90;;;;;;4870831;29;20400;-89
2022/03/20 01:50:33;;;;;;;5.18;2.97;;;3.70;99.90;;;;;;4886158;29;20041;-90
2022/03/20 01:52:59;;;;;;;5.88;4.07;;;3.80;99.90;;;;;;4870936;29;20455;-90
2022/03/20 01:55:28;;;;;;;6.27;4.03;;;3.70;99.90;;;;;;4859845;29;20051;-88
2022/03/20 01:57:54;;;;;;;4.57;3.50;;;4.00;99.90;;;;;;4865831;29;20061;-89
2022/03/20 02:00:24;;;;;;;6.55;3.58;;;3.60;99.90;;;;;;4867871;29;20049;-90
2022/03/20 02:02:51;;;;;;;7.45;3.20;;;3.70;99.90;;;;;;4864274;29;20052;-86
2022/03/20 02:05:17;;;;;;;6.35;4.35;;;5.00;99.90;;;;;;4866199;29;20055;-89
2022/03/20 02:07:47;;;;;;;10.70;3.50;;;3.60;99.90;;;;;;4842981;29;20067;-90
2022/03/20 02:10:13;;;;;;;5.18;3.45;;;4.00;99.90;;;;;;4861532;29;20080;-91
2022/03/20 02:12:40;;;;;;;6.95;3.72;;;3.60;99.90;;;;;;4877569;29;20068;-90
2022/03/20 02:15:09;;;;;;;3.92;3.00;;;4.00;99.90;;;;;;4886204;29;20049;-90
2022/03/20 02:17:36;;;;;;;4.60;3.58;;;3.60;99.90;;;;;;4865525;29;20394;-90
2022/03/20 02:20:05;;;;;;;5.05;3.47;;;3.50;99.90;;;;;;4865292;29;20057;-90
2022/03/20 02:22:31;;;;;;;6.15;3.88;;;3.50;99.90;;;;;;4863647;29;20041;-90
2022/03/20 02:24:57;;;;;;;10.10;3.67;;;3.50;99.90;;;;;;4859426;29;20068;-89
2022/03/20 02:27:27;;;;;;;6.93;4.38;;;3.40;99.90;;;;;;4883298;29;20095;-90
2022/03/20 02:30:13;;;;;;;5.18;3.90;;;3.40;99.90;;;;;;4857591;29;20453;-87
2022/03/20 02:32:41;;;;;;;5.95;3.33;;;3.40;99.90;;;;;;4868072;29;20060;-91
2022/03/20 02:35:11;;;;;;;6.75;3.70;;;4.20;99.90;;;;;;4880397;29;20132;-90
2022/03/20 02:37:39;;;;;;;6.53;4.10;;;3.30;99.90;;;;;;4856738;29;20046;-89
2022/03/20 02:40:05;;;;;;;7.43;4.20;;;3.30;99.90;;;;;;4874064;29;20048;-90
2022/03/20 02:42:31;;;;;;;4.32;3.80;;;3.20;99.90;;;;;;4856327;29;20048;-91
2022/03/20 02:45:17;;;;;;;5.18;3.45;;;3.20;99.90;;;;;;4844152;29;21699;-86
2022/03/20 02:47:44;;;;;;;8.05;4.15;;;3.20;99.90;;;;;;4875299;29;20049;-90
2022/03/20 02:50:17;;;;;;;6.85;4.10;;;3.10;99.90;;;;;;4861858;29;20049;-90
2022/03/20 02:52:51;;;;;;;4.28;3.83;;;3.10;99.90;;;;;;4851035;29;20099;-90
2022/03/20 02:55:31;;;;;;;6.13;3.95;;;3.10;99.90;;;;;;4872210;29;20669;-90
2022/03/20 02:57:59;;;;;;;4.97;3.65;;;3.00;99.90;;;;;;4849312;29;20128;-86
2022/03/20 03:00:28;;;;;;;5.25;3.85;;;3.00;99.90;;;;;;4877914;29;20052;-89
2022/03/20 03:02:56;;;;;;;8.95;4.50;;;3.80;99.90;;;;;;4848350;29;20044;-89
2022/03/20 03:05:24;;;;;;;5.55;4.07;;;3.00;99.90;;;;;;4860959;29;20092;-88
2022/03/20 03:10:56;;;;;;;4.30;3.65;;;4.00;99.90;;;;;;4869144;29;20136;-89
2022/03/20 03:13:42;;;;;;;8.57;4.55;;;2.90;99.90;;;;;;4854645;29;20056;-89
2022/03/20 03:16:11;;;;;;;7.00;4.93;;;2.90;99.90;;;;;;4869060;29;20133;-90
2022/03/20 03:18:39;;;;;;;6.47;4.47;;;2.80;99.90;;;;;;4867174;29;20112;-88
2022/03/20 03:21:09;;;;;;;7.28;3.95;;;2.80;99.90;;;;;;4858687;29;20052;-88
2022/03/20 03:23:36;;;;;;;10.00;4.65;;;2.80;99.90;;;;;;4880200;29;20053;-89
2022/03/20 03:26:04;;;;;;;8.40;5.07;;;2.80;99.90;;;;;;4859600;29;20076;-85
2022/03/20 03:28:37;;;;;;;9.05;4.22;;;3.90;99.90;;;;;;4865952;29;20041;-89
2022/03/20 03:31:05;;;;;;;9.05;4.88;;;2.70;99.90;;;;;;4872217;29;20105;-86
2022/03/20 03:33:31;;;;;;;11.07;4.57;;;3.70;99.90;;;;;;4849685;29;20118;-89
2022/03/20 03:35:57;;;;;;;13.35;4.60;;;2.70;99.90;;;;;;4872723;29;20100;-89
2022/03/20 03:38:30;;;;;;;7.43;5.38;;;3.80;99.90;;;;;;4862083;29;20858;-89
2022/03/20 03:40:57;;;;;;;5.53;3.90;;;2.60;99.90;;;;;;4867860;29;20048;-89
2022/03/20 03:43:23;;;;;;;11.60;5.03;;;2.60;99.90;;;;;;4869221;29;20105;-90
2022/03/20 03:45:49;;;;;;;6.13;3.75;;;2.70;99.90;;;;;;4867013;29;20532;-90
2022/03/20 03:48:16;;;;;;;9.68;5.05;;;3.40;99.90;;;;;;4873969;29;20508;-89
2022/03/20 03:50:44;;;;;;;9.45;4.30;;;2.50;99.90;;;;;;4854795;29;20057;-90
2022/03/20 03:53:10;;;;;;;8.82;4.18;;;2.90;99.90;;;;;;4834815;29;20053;-89
2022/03/20 03:55:36;;;;;;;9.57;4.75;;;2.50;99.90;;;;;;4847615;29;20506;-89
2022/03/20 03:58:03;;;;;;;10.37;4.97;;;2.50;99.90;;;;;;4862508;29;20073;-88
2022/03/20 04:00:32;;;;;;;8.88;4.50;;;2.50;99.90;;;;;;4863077;29;20105;-89
2022/03/20 04:02:59;;;;;;;9.43;5.20;;;2.50;99.90;;;;;;4883956;29;20053;-90
2022/03/20 04:05:25;;;;;;;7.95;5.10;;;2.40;99.90;;;;;;4871651;29;20658;-88
2022/03/20 04:07:51;;;;;;;8.23;4.72;;;2.40;99.90;;;;;;4854639;29;20116;-89
2022/03/20 04:10:17;;;;;;;6.50;4.70;;;2.60;99.90;;;;;;4865629;29;20500;-89
2022/03/20 04:12:44;;;;;;;9.90;4.93;;;2.40;99.90;;;;;;4862507;29;20381;-89
2022/03/20 04:15:10;;;;;;;;;;;3.60;99.90;;;;;;4885488;29;20073;-89
2022/03/20 04:17:37;;;;;;;8.20;4.85;;;2.40;99.90;;;;;;4850538;29;19959;-89
2022/03/20 04:20:04;;;;;;;5.43;3.80;;;2.40;99.90;;;;;;4848720;29;20050;-89
2022/03/20 04:22:30;;;;;;;9.18;5.70;;;2.40;99.90;;;;;;4874578;29;20133;-90
2022/03/20 04:24:56;;;;;;;17.10;6.07;;;2.40;99.90;;;;;;4876227;29;20108;-88
2022/03/20 04:27:22;;;;;;;9.50;5.17;;;2.40;99.90;;;;;;4874083;29;20082;-89
2022/03/20 04:29:48;;;;;;;9.15;6.20;;;2.40;99.90;;;;;;4876047;29;20641;-89
2022/03/20 04:32:14;;;;;;;11.40;5.78;;;2.40;99.90;;;;;;4880916;29;20133;-89
2022/03/20 04:34:41;;;;;;;11.57;6.15;;;2.30;99.90;;;;;;4860349;29;20560;-88
2022/03/20 04:37:08;;;;;;;;;;;2.30;99.90;;;;;;4877933;29;20077;-89
2022/03/20 04:39:34;;;;;;;11.57;4.45;;;2.40;99.90;;;;;;4867559;29;19924;-89
2022/03/20 04:42:00;;;;;;;7.88;5.47;;;2.30;99.90;;;;;;4839598;29;20136;-90
2022/03/20 04:44:26;;;;;;;14.18;6.45;;;2.30;99.90;;;;;;4884394;29;20502;-89
2022/03/20 04:46:53;;;;;;;8.00;5.93;;;2.30;99.90;;;;;;4864230;29;20113;-89
2022/03/20 05:00:18;;;;;;;10.35;6.47;;;3.30;99.90;;;;;;4867983;29;20057;-88
2022/03/20 05:02:44;;;;;;;10.07;6.65;;;2.20;99.90;;;;;;4864643;29;20116;-89
2022/03/20 05:05:10;;;;;;;8.45;4.38;;;2.20;99.90;;;;;;4866673;29;20057;-90
2022/03/20 05:07:36;;;;;;;16.87;6.07;;;2.90;99.90;;;;;;4859258;29;20053;-89
2022/03/20 05:15:35;;;;;;;8.68;5.75;;;2.10;99.90;;;;;;4874799;29;20112;-89
2022/03/20 05:18:00;;;;;;;7.85;5.82;;;3.50;99.90;;;;;;4863043;29;20502;-89
2022/03/20 05:20:26;;;;;;;11.18;6.93;;;2.10;99.90;;;;;;4878190;29;20052;-88
2022/03/20 05:22:52;;;;;;;12.00;6.00;;;2.90;99.90;;;;;;4853245;29;20079;-89
2022/03/20 05:25:18;;;;;;;15.00;6.80;;;2.40;99.90;;;;;;4867060;29;20059;-89
2022/03/20 05:27:44;;;;;;;9.53;5.43;;;2.90;99.90;;;;;;4887908;29;20072;-89
2022/03/20 05:30:11;;;;;;;13.30;6.57;;;2.10;99.90;;;;;;4840042;29;20444;-87
2022/03/20 05:32:38;;;;;;;11.68;5.90;;;2.10;99.90;;;;;;4862822;29;20069;-89
2022/03/20 05:35:06;;;;;;;9.35;5.60;;;2.00;99.90;;;;;;4853096;29;20109;-89
2022/03/20 05:37:32;;;;;;;12.25;6.68;;;2.00;99.90;;;;;;4866079;29;20041;-89
2022/03/20 05:39:59;;;;;;;7.88;5.85;;;2.00;99.90;;;;;;4877259;29;20081;-87
2022/03/20 05:42:24;;;;;;;7.07;6.35;;;2.80;99.90;;;;;;4856185;29;20123;-89
2022/03/20 05:44:51;;;;;;;10.27;6.75;;;3.00;99.90;;;;;;4861718;29;20132;-89
2022/03/20 05:47:17;;;;;;;18.55;6.70;;;2.00;99.90;;;;;;4866816;29;20052;-86
2022/03/20 05:49:43;;;;;;;14.53;7.87;;;2.00;99.90;;;;;;4884199;29;20052;-88
2022/03/20 05:52:09;;;;;;;14.50;6.63;;;2.00;99.90;;;;;;4832805;29;20095;-89
2022/03/20 05:54:35;;;;;;;9.40;5.87;;;2.00;99.90;;;;;;4854946;29;20456;-89
2022/03/20 05:59:46;;;;;;;11.70;5.95;;;3.30;99.90;;;;;;4865757;29;20053;-89
2022/03/20 06:02:12;;;;;;;15.35;10.07;;;2.00;99.90;;;;;;4864692;29;20056;-89
2022/03/20 06:04:38;;;;;;;11.43;6.45;;;2.00;99.90;;;;;;4861541;29;20056;-89
2022/03/20 06:07:05;;;;;;;11.57;8.03;;;2.40;99.90;;;;;;4859507;29;20488;-89
2022/03/20 06:09:31;;;;;;;15.10;6.93;;;3.30;99.90;;;;;;4849980;29;20805;-89
2022/03/20 06:11:57;;;;;;;12.32;7.18;;;2.00;99.90;;;;;;4886959;29;20137;-89
2022/03/20 06:14:23;;;;;;;13.82;7.18;;;3.20;99.90;;;;;;4836929;29;20078;-86
2022/03/20 06:16:49;;;;;;;11.63;7.20;;;2.10;99.90;;;;;;4869525;29;20085;-89
2022/03/20 06:19:16;;;;;;;11.47;6.47;;;3.40;99.90;;;;;;4846607;29;20064;-89
2022/03/20 06:21:43;;;;;;;8.27;6.72;;;2.50;99.90;;;;;;4881667;29;20054;-88
2022/03/20 06:24:08;;;;;;;14.52;8.80;;;3.00;99.90;;;;;;4862784;29;20049;-89
2022/03/20 06:26:35;;;;;;;10.32;6.80;;;2.90;99.90;;;;;;4853885;29;20069;-89
2022/03/20 06:29:01;;;;;;;17.88;8.38;;;2.20;99.90;;;;;;4852728;29;20064;-88
2022/03/20 06:31:27;;;;;;;15.82;7.85;;;3.60;99.90;;;;;;4892782;29;20052;-88
2022/03/20 06:33:54;;;;;;;11.43;8.02;;;3.20;99.90;;;;;;4857777;29;20497;-89
2022/03/20 06:36:19;;;;;;;;;;;2.80;99.90;;;;;;4875934;29;20056;-89
2022/03/20 06:38:45;;;;;;;10.90;7.72;;;3.80;99.90;;;;;;4890037;29;19926;-90
2022/03/20 06:41:11;;;;;;;16.53;9.27;;;3.20;99.90;;;;;;4824000;29;20064;-88
2022/03/20 06:43:38;;;;;;;13.98;7.75;;;3.30;99.90;;;;;;4860134;29;20120;-89
2022/03/20 06:46:07;;;;;;;11.65;7.55;;;3.30;99.90;;;;;;4854934;29;20056;-90
2022/03/20 06:48:34;;;;;;;13.25;7.38;;;3.50;99.90;;;;;;4851561;29;20064;-89
2022/03/20 06:51:00;;;;;;;16.05;8.82;;;3.50;99.90;;;;;;4870901;29;20089;-90
2022/03/20 06:53:27;;;;;;;15.63;7.93;;;3.40;99.90;;;;;;4862540;29;20045;-86
2022/03/20 06:55:53;;;;;;;20.55;8.25;;;3.90;99.90;;;;;;4848268;29;20049;-90
2022/03/20 06:58:21;;;;;;;13.50;8.20;;;3.20;99.90;;;;;;4870505;29;20132;-90
2022/03/20 07:00:46;;;;;;;14.18;7.93;;;3.20;99.90;;;;;;4863085;29;20049;-89
2022/03/20 07:03:12;;;;;;;13.85;7.85;;;2.70;99.90;;;;;;4872755;29;20125;-89
2022/03/20 07:05:42;;;;;;;16.13;8.93;;;3.50;99.90;;;;;;4847916;29;20059;-89
2022/03/20 07:08:08;;;;;;;17.30;9.02;;;3.60;99.90;;;;;;4870706;29;20048;-89
2022/03/20 07:10:36;;;;;;;12.90;8.77;;;3.70;99.90;;;;;;4854888;29;20080;-91
2022/03/20 07:15:56;;;;;;;15.55;8.90;;;4.10;99.90;;;;;;4864175;29;20061;-92
2022/03/20 07:18:22;;;;;;;11.82;7.60;;;4.40;99.90;;;;;;4848864;29;20567;-91
2022/03/20 07:21:10;;;;;;;11.77;8.30;;;4.60;99.90;;;;;;4866868;29;20045;-90
2022/03/20 07:23:37;;;;;;;11.65;8.52;;;4.90;99.90;;;;;;4863389;29;20056;-85
2022/03/20 07:31:34;;;;;;;18.42;9.02;;;5.40;99.90;;;;;;4865102;29;20080;-89
2022/03/20 07:34:00;;;;;;;13.97;8.30;;;5.50;99.90;;;;;;4864885;29;20076;-86
2022/03/20 07:36:26;;;;;;;13.52;7.97;;;5.70;99.90;;;;;;4862618;29;20416;-89
2022/03/20 07:38:52;;;;;;;10.53;7.63;;;5.80;99.90;;;;;;4866603;29;20128;-92
2022/03/20 07:41:18;;;;;;;12.77;8.73;;;5.70;99.90;;;;;;4848635;29;20056;-93
2022/03/20 07:43:46;;;;;;;11.23;8.63;;;5.90;99.90;;;;;;4850396;29;20045;-91
2022/03/20 07:46:15;;;;;;;14.10;8.52;;;6.10;99.90;;;;;;4827392;29;20056;-86
2022/03/20 07:48:41;;;;;;;12.73;9.07;;;6.20;99.90;;;;;;4831483;29;20045;-93
2022/03/20 07:51:07;;;;;;;11.53;8.53;;;5.40;99.90;;;;;;4848066;29;20140;-95
2022/03/20 07:53:35;;;;;;;12.20;8.60;;;6.30;99.90;;;;;;4878545;29;20060;-95
2022/03/20 07:56:01;;;;;;;10.25;7.65;;;6.90;99.90;;;;;;4878557;29;20080;-93
2022/03/20 07:58:29;;;;;;;15.63;7.83;;;6.60;99.90;;;;;;4838245;29;20095;-90
2022/03/20 08:00:55;;;;;;;14.95;8.90;;;6.90;99.90;;;;;;4859053;29;20104;-91
2022/03/20 08:03:21;;;;;;;13.97;8.50;;;8.00;99.90;;;;;;4888265;29;20103;-92
2022/03/20 08:05:50;;;;;;;14.23;9.10;;;6.60;99.90;;;;;;4852586;29;20067;-90
2022/03/20 08:08:16;;;;;;;10.93;9.20;;;6.40;99.90;;;;;;4875645;29;20132;-91
2022/03/20 08:10:43;;;;;;;15.37;9.03;;;6.10;99.90;;;;;;4871119;29;20136;-92
2022/03/20 08:13:10;;;;;;;13.25;8.40;;;6.20;99.90;;;;;;4833588;29;20053;-94
2022/03/20 08:15:36;;;;;;;16.17;8.18;;;6.30;99.90;;;;;;4868046;29;20048;-90
2022/03/20 08:18:04;;;;;;;18.73;8.55;;;6.80;99.90;;;;;;4860029;29;20055;-91
2022/03/20 08:20:30;;;;;;;16.33;8.90;;;6.90;99.90;;;;;;4883046;29;20451;-94
2022/03/20 08:22:56;;;;;;;14.60;8.83;;;7.10;99.90;;;;;;4871536;29;20049;-88
2022/03/20 08:25:22;;;;;;;11.77;8.35;;;7.50;99.90;;;;;;4842471;29;20437;-94
2022/03/20 08:27:50;;;;;;;11.97;8.17;;;7.60;99.90;;;;;;4876598;29;20156;-93
2022/03/20 08:30:17;;;;;;;12.80;7.72;;;7.80;99.90;;;;;;4862669;29;20056;-94
2022/03/20 08:32:43;;;;;;;13.02;8.73;;;8.00;99.90;;;;;;4866530;29;20484;-93
2022/03/20 08:35:13;;;;;;;12.55;7.88;;;7.90;98.70;;;;;;4873671;29;20571;-94
2022/03/20 08:37:43;;;;;;;13.57;9.45;;;8.10;98.40;;;;;;4853712;29;20120;-88
2022/03/20 08:40:15;;;;;;;15.30;8.68;;;8.20;97.70;;;;;;4871764;29;20493;-94
2022/03/20 08:43:04;;;;;;;14.63;8.38;;;8.50;97.50;;;;;;4869734;29;20090;-91
2022/03/20 08:45:33;;;;;;;11.65;8.65;;;8.70;94.90;;;;;;4854256;29;20071;-95
2022/03/20 08:47:59;;;;;;;15.00;7.72;;;8.60;94.80;;;;;;4852981;29;20059;-94
2022/03/20 08:50:25;;;;;;;10.95;8.88;;;8.50;94.70;;;;;;4828875;29;20048;-95
2022/03/20 08:52:51;;;;;;;13.43;8.80;;;8.50;94.40;;;;;;4877117;29;20056;-92
2022/03/20 08:55:17;;;;;;;14.40;8.80;;;8.40;93.00;;;;;;4869886;29;20041;-92
2022/03/20 08:57:46;;;;;;;15.48;9.85;;;8.40;92.90;;;;;;4879015;29;20121;-91
2022/03/20 09:00:18;;;;;;;20.02;10.32;;;8.50;91.90;;;;;;4873138;29;20466;-93
2022/03/20 09:02:45;;;;;;;13.57;8.40;;;8.80;91.10;;;;;;4870355;29;20069;-91
2022/03/20 09:05:12;;;;;;;18.13;9.90;;;8.80;90.90;;;;;;4864618;29;20046;-91
2022/03/20 09:07:44;;;;;;;13.32;9.15;;;8.90;90.40;;;;;;4880304;29;20117;-88
2022/03/20 09:10:11;;;;;;;12.55;8.75;;;8.80;88.50;;;;;;4877150;29;20060;-89
2022/03/20 09:12:38;;;;;;;16.60;9.55;;;8.70;88.20;;;;;;4879433;29;20045;-89
2022/03/20 09:15:12;;;;;;;13.50;10.48;;;8.70;87.80;;;;;;4875719;29;20048;-86
2022/03/20 09:20:32;;;;;;;12.00;8.93;;;8.70;85.60;;;;;;4869732;29;20139;-90
2022/03/20 09:22:58;;;;;;;;;;;8.80;86.60;;;;;;4869227;29;20072;-89
2022/03/20 09:25:24;;;;;;;13.25;8.57;;;8.70;83.50;;;;;;4857820;29;20355;-90
2022/03/20 09:27:51;;;;;;;14.40;8.85;;;8.80;86.10;;;;;;4871422;29;20045;-89
2022/03/20 09:30:17;;;;;;;;;;;8.80;86.00;;;;;;4862688;29;20052;-89
2022/03/20 09:32:44;;;;;;;16.17;9.68;;;8.90;83.10;;;;;;4875300;29;19931;-87
2022/03/20 09:35:13;;;;;;;13.95;9.90;;;9.00;85.60;;;;;;4859014;29;20044;-92
2022/03/20 09:37:39;;;;;;;13.15;9.65;;;9.40;84.60;;;;;;4854000;29;20052;-89
2022/03/20 09:40:06;;;;;;;17.20;9.83;;;9.00;82.80;;;;;;4851592;29;20053;-93
2022/03/20 09:42:34;;;;;;;17.17;9.98;;;9.10;82.40;;;;;;4868280;29;20077;-93
2022/03/20 09:45:00;;;;;;;15.80;9.65;;;9.50;82.60;;;;;;4878459;29;20065;-92
2022/03/20 09:47:26;;;;;;;13.30;9.63;;;9.80;81.20;;;;;;4882236;29;20100;-94
2022/03/20 09:49:53;;;;;;;18.73;10.38;;;10.00;79.40;;;;;;4852752;29;20053;-86
2022/03/20 09:52:19;;;;;;;17.55;9.90;;;10.20;78.20;;;;;;4893902;29;20054;-90
2022/03/20 09:54:46;;;;;;;16.67;10.57;;;10.30;78.50;;;;;;4864547;29;20143;-94
2022/03/20 09:57:12;;;;;;;15.25;9.32;;;10.30;77.40;;;;;;4845010;29;20057;-93
2022/03/20 09:59:39;;;;;;;13.03;9.43;;;10.10;77.40;;;;;;4876552;29;20404;-92
2022/03/20 10:02:09;;;;;;;12.55;9.57;;;10.30;76.10;;;;;;4835247;29;20044;-93
2022/03/20 10:05:00;;;;;;;15.68;9.68;;;10.20;74.90;;;;;;4872283;29;20502;-95
2022/03/20 10:07:31;;;;;;;15.23;8.90;;;10.20;72.70;;;;;;4893734;29;20059;-94
2022/03/20 10:10:17;;;;;;;20.45;10.38;;;10.20;73.50;;;;;;4868051;29;20049;-93
2022/03/20 10:12:56;;;;;;;15.27;9.02;;;10.20;71.70;;;;;;4878606;29;20064;-93
2022/03/20 10:15:31;;;;;;;22.83;11.32;;;10.30;71.00;;;;;;4888896;29;20068;-94
2022/03/20 10:18:06;;;;;;;19.95;10.10;;;10.60;71.90;;;;;;4891975;29;20040;-94
2022/03/20 10:20:41;;;;;;;15.88;10.50;;;10.60;70.20;;;;;;4872326;29;20441;-93
2022/03/20 10:23:32;;;;;;;16.13;10.80;;;10.70;70.40;;;;;;4862165;29;20049;-94
2022/03/20 10:26:04;;;;;;;12.80;9.43;;;10.80;70.60;;;;;;4842130;29;20503;-90
2022/03/20 10:28:45;;;;;;;15.65;10.05;;;10.80;69.60;;;;;;4880309;29;20075;-93
2022/03/20 10:31:20;;;;;;;23.65;10.90;;;10.80;68.70;;;;;;4845753;29;20124;-94
2022/03/20 10:34:03;;;;;;;16.30;10.38;;;10.60;69.60;;;;;;4889452;29;20045;-93
2022/03/20 10:36:29;;;;;;;12.52;9.48;;;10.50;68.40;;;;;;4889035;29;20052;-91
2022/03/20 10:38:55;;;;;;;15.73;10.43;;;10.60;69.20;;;;;;4877848;29;20412;-89
2022/03/20 10:41:32;;;;;;;13.73;10.30;;;10.70;69.50;;;;;;4858587;29;20048;-93
2022/03/20 10:43:59;;;;;;;16.08;9.13;;;10.80;69.10;;;;;;4866071;29;20057;-92
2022/03/20 10:46:30;;;;;;;16.90;10.52;;;11.00;69.90;;;;;;4876375;29;20053;-92
2022/03/20 10:49:04;;;;;;;13.80;10.02;;;11.10;68.70;;;;;;4888526;29;20491;-91
2022/03/20 10:51:40;;;;;;;17.48;10.43;;;11.20;67.90;;;;;;4863624;29;20049;-94
2022/03/20 10:54:07;;;;;;;18.58;12.73;;;11.20;67.20;;;;;;4848170;29;20049;-91
2022/03/20 10:56:33;;;;;;;18.60;11.65;;;11.30;68.10;;;;;;4843968;29;20112;-91
2022/03/20 10:59:00;;;;;;;22.77;11.02;;;11.20;67.50;;;;;;4895923;29;20509;-89
2022/03/20 11:01:38;;;;;;;12.57;9.00;;;11.30;67.40;;;;;;4855607;29;20049;-92
2022/03/20 11:04:06;;;;;;;16.33;10.43;;;11.40;66.00;;;;;;4868484;29;20082;-92
2022/03/20 11:06:31;;;;;;;18.50;10.23;;;11.50;66.60;;;;;;4875904;29;20136;-91
2022/03/20 11:08:57;;;;;;;18.13;10.93;;;11.50;67.20;;;;;;4862041;29;20132;-90
2022/03/20 11:11:25;;;;;;;18.07;10.63;;;11.50;66.80;;;;;;4868241;29;20065;-91
2022/03/20 11:13:52;;;;;;;19.73;10.90;;;11.60;65.80;;;;;;4872837;29;20052;-87
2022/03/20 11:16:24;;;;;;;17.33;10.55;;;11.70;66.00;;;;;;4870031;29;20119;-88
2022/03/20 11:18:53;;;;;;;16.90;10.98;;;11.60;65.70;;;;;;4885751;29;20044;-89
2022/03/20 11:21:23;;;;;;;14.13;10.05;;;11.60;66.00;;;;;;4855881;29;20119;-89
2022/03/20 11:23:51;;;;;;;19.95;10.18;;;11.70;65.00;;;;;;4882545;29;21553;-91
2022/03/20 11:26:21;;;;;;;18.40;11.38;;;11.70;65.50;;;;;;4868958;29;20057;-88
2022/03/20 11:28:53;;;;;;;17.55;10.77;;;11.80;65.30;;;;;;4886329;29;20056;-91
2022/03/20 11:31:20;;;;;;;17.45;11.55;;;11.90;65.10;;;;;;4871211;29;20049;-91
2022/03/20 11:33:49;;;;;;;;;;;11.90;63.70;;;;;;4869880;29;20053;-93
2022/03/20 11:36:15;;;;;;;17.30;10.50;;;11.90;62.10;;;;;;4865278;29;19924;-88
2022/03/20 11:38:41;;;;;;;17.53;10.73;;;11.80;64.20;;;;;;4837220;29;20047;-92
2022/03/20 11:41:08;;;;;;;15.40;9.83;;;12.00;64.70;;;;;;4846622;29;20163;-93
2022/03/20 11:43:44;;;;;;;18.10;11.88;;;12.00;64.40;;;;;;4863964;29;20076;-93
2022/03/20 11:46:32;;;;;;;17.50;10.95;;;11.90;63.40;;;;;;4894407;29;20057;-93
2022/03/20 11:49:17;;;;;;;20.30;10.02;;;11.80;62.80;;;;;;4841881;29;20056;-94
2022/03/20 11:52:07;;;;;;;16.90;10.15;;;11.80;62.70;;;;;;4861278;29;20133;-94
2022/03/20 11:54:42;;;;;;;22.88;10.95;;;12.00;62.30;;;;;;4826822;29;20057;-94
2022/03/20 11:57:29;;;;;;;18.35;10.73;;;12.00;62.60;;;;;;4861730;29;20052;-93
2022/03/20 12:00:19;;;;;;;16.05;10.98;;;11.90;61.90;;;;;;4848082;29;20057;-95
2022/03/20 12:03:19;;;;;;;17.15;10.45;;;12.00;63.00;;;;;;4892038;29;20041;-93
2022/03/20 12:05:54;;;;;;;15.25;12.00;;;12.00;62.00;;;;;;4829887;29;20086;-94
2022/03/20 12:08:41;;;;;;;15.38;10.23;;;12.20;63.20;;;;;;4859740;29;20057;-93
2022/03/20 12:11:42;;;;;;;17.00;11.00;;;12.10;61.60;;;;;;4860538;29;20065;-89
2022/03/20 12:14:31;;;;;;;15.18;10.45;;;12.10;62.30;;;;;;4860888;29;20469;-91
2022/03/20 12:16:59;;;;;;;16.98;10.82;;;12.20;63.20;;;;;;4830397;29;20053;-93
2022/03/20 12:19:41;;;;;;;17.05;9.98;;;12.40;63.30;;;;;;4859710;29;20061;-93
2022/03/20 12:22:14;;;;;;;20.00;11.35;;;12.60;61.20;;;;;;4845826;29;20096;-92
2022/03/20 12:24:54;;;;;;;22.23;11.48;;;12.60;62.20;;;;;;4863015;29;20049;-93
2022/03/20 12:27:22;;;;;;;16.23;10.00;;;12.50;60.60;;;;;;4866775;29;20054;-93
2022/03/20 12:30:21;;;;;;;18.58;11.32;;;12.60;62.30;;;;;;4889121;29;20055;-93
2022/03/20 12:32:47;;;;;;;17.00;11.63;;;12.70;61.40;;;;;;4854406;29;20144;-93
2022/03/20 12:35:17;;;;;;;19.60;10.57;;;12.90;62.50;;;;;;4883917;29;20140;-93
2022/03/20 12:37:44;;;;;;;18.30;11.40;;;13.00;61.90;;;;;;4853479;29;20052;-93
2022/03/20 12:40:20;;;;;;;18.67;10.50;;;13.10;61.40;;;;;;4847843;29;20049;-93
2022/03/20 12:43:02;;;;;;;23.52;11.35;;;13.00;60.50;;;;;;4866930;29;20145;-93
2022/03/20 12:45:29;;;;;;;19.48;11.90;;;12.90;59.40;;;;;;4850189;29;20092;-93
2022/03/20 12:48:22;;;;;;;16.17;11.05;;;12.80;60.40;;;;;;4881597;29;20128;-93
2022/03/20 12:50:52;;;;;;;22.77;12.88;;;12.90;58.90;;;;;;4856874;29;20515;-94
2022/03/20 12:53:21;;;;;;;18.08;11.38;;;13.80;61.50;;;;;;4868217;29;20053;-93
2022/03/20 12:55:58;;;;;;;17.50;10.98;;;13.00;61.10;;;;;;4854015;29;20052;-93
2022/03/20 12:58:24;;;;;;;20.20;11.70;;;12.90;60.00;;;;;;4852611;29;20045;-94
2022/03/20 13:00:52;;;;;;;17.85;11.38;;;12.90;60.60;;;;;;4869104;29;20113;-94
2022/03/20 13:03:19;;;;;;;17.50;10.45;;;12.70;60.60;;;;;;4835619;29;20061;-94
2022/03/20 13:05:45;;;;;;;22.40;11.30;;;12.70;60.80;;;;;;4851375;29;20129;-94
2022/03/20 13:08:31;;;;;;;19.77;10.43;;;12.80;61.30;;;;;;4884684;29;20489;-94
2022/03/20 13:14:00;;;;;;;16.77;11.35;;;13.00;59.90;;;;;;4853038;29;20041;-93
2022/03/20 13:16:26;;;;;;;18.50;10.75;;;13.00;60.80;;;;;;4852447;29;20544;-94
2022/03/20 13:18:52;;;;;;;18.85;10.80;;;13.00;60.70;;;;;;4884431;29;20109;-92
2022/03/20 13:21:19;;;;;;;17.60;11.00;;;13.00;60.40;;;;;;4867844;29;20053;-94
2022/03/20 13:23:45;;;;;;;17.27;10.52;;;13.10;60.60;;;;;;4869365;29;20049;-93
2022/03/20 13:26:18;;;;;;;14.27;10.90;;;12.70;60.40;;;;;;4882349;29;20057;-93
2022/03/20 13:28:45;;;;;;;16.73;10.88;;;12.50;60.50;;;;;;4836152;29;20082;-93
2022/03/20 13:31:20;;;;;;;16.70;10.90;;;12.20;61.30;;;;;;4836269;29;20053;-93
2022/03/20 13:33:51;;;;;;;16.63;11.02;;;12.10;61.40;;;;;;4866531;29;20116;-94